createdAt,value
2022-12-26T05:49:38.521Z,29.01
2022-12-26T05:50:38.514Z,29.02
2022-12-26T05:51:38.519Z,29.03
2022-12-26T05:52:38.529Z,29.01
2022-12-26T05:53:38.491Z,29.02
2022-12-26T05:54:38.478Z,29.01
2022-12-26T05:55:38.475Z,29.01
2022-12-26T05:56:38.473Z,29.00
2022-12-26T05:57:38.464Z,28.99
2022-12-26T05:58:38.473Z,29.00
2022-12-26T05:59:38.435Z,29.03
2022-12-26T06:00:38.427Z,29.02
2022-12-26T06:01:38.604Z,29.00
2022-12-26T06:02:38.580Z,29.01
2022-12-26T06:03:38.503Z,29.01
2022-12-26T06:04:38.404Z,29.00
2022-12-26T06:05:38.394Z,29.03
2022-12-26T06:07:38.431Z,29.00
2022-12-26T06:08:38.377Z,29.02
2022-12-26T06:09:38.345Z,29.04
2022-12-26T06:10:38.339Z,29.04
2022-12-26T06:11:41.453Z,29.04
2022-12-26T06:12:38.321Z,29.05
2022-12-26T06:13:38.322Z,29.03
2022-12-26T06:14:38.326Z,29.03
2022-12-26T06:15:38.291Z,29.01
2022-12-26T06:16:38.354Z,29.02
2022-12-26T06:17:38.279Z,29.01
2022-12-26T06:18:38.285Z,29.02
2022-12-26T06:19:44.621Z,29.01
2022-12-26T06:20:38.255Z,29.02
2022-12-26T06:21:38.238Z,29.00
2022-12-26T06:22:38.378Z,29.02
2022-12-26T06:23:38.243Z,29.02
2022-12-26T06:24:38.229Z,29.01
2022-12-26T06:25:38.204Z,29.01
2022-12-26T06:26:38.198Z,29.00
2022-12-26T06:27:38.303Z,29.01
2022-12-26T06:28:38.179Z,29.00
2022-12-26T06:29:38.168Z,29.02
2022-12-26T06:30:38.180Z,29.02
2022-12-26T06:31:38.243Z,29.00
2022-12-26T06:32:38.167Z,29.00
2022-12-26T06:33:38.135Z,28.97
2022-12-26T06:34:38.128Z,28.98
2022-12-26T06:35:38.121Z,29.01
2022-12-26T06:36:38.115Z,29.00
2022-12-26T06:37:38.096Z,29.00
2022-12-26T06:38:38.093Z,28.96
2022-12-26T06:39:38.077Z,28.97
2022-12-26T06:40:38.075Z,28.99
2022-12-26T06:41:38.070Z,29.00
2022-12-26T06:42:38.054Z,28.99
2022-12-26T06:43:38.042Z,28.98
2022-12-26T06:44:38.036Z,28.99
2022-12-26T06:45:38.023Z,28.99
2022-12-26T06:46:38.089Z,29.01
2022-12-26T06:47:38.005Z,29.01
2022-12-26T06:48:38.005Z,29.00
2022-12-26T06:49:37.998Z,29.01
2022-12-26T06:50:37.985Z,29.00
2022-12-26T06:51:37.979Z,28.98
2022-12-26T06:52:37.971Z,29.00
2022-12-26T06:53:37.969Z,29.01
2022-12-26T06:54:37.945Z,29.02
2022-12-26T06:55:37.939Z,29.01
2022-12-26T06:56:37.932Z,29.00
2022-12-26T06:57:37.935Z,29.02
2022-12-26T06:58:37.920Z,29.01
2022-12-26T06:59:37.903Z,29.00
2022-12-26T07:00:37.968Z,28.99
2022-12-26T07:01:38.081Z,28.98
2022-12-26T07:02:38.120Z,28.98
2022-12-26T07:03:37.870Z,28.99
2022-12-26T07:04:37.861Z,29.00
2022-12-26T07:05:37.850Z,29.02
2022-12-26T07:06:37.887Z,28.98
2022-12-26T07:07:37.826Z,29.00
2022-12-26T07:08:37.823Z,29.00
2022-12-26T07:09:37.815Z,29.01
2022-12-26T07:10:37.842Z,28.99
2022-12-26T07:11:37.805Z,28.99
2022-12-26T07:12:37.787Z,28.99
2022-12-26T07:13:37.776Z,28.99
2022-12-26T07:14:37.768Z,28.99
2022-12-26T07:15:37.753Z,28.99
2022-12-26T07:16:37.868Z,28.99
2022-12-26T07:17:37.751Z,28.97
2022-12-26T07:18:37.757Z,28.98
2022-12-26T07:19:37.730Z,28.98
2022-12-26T07:20:37.715Z,28.98
2022-12-26T07:21:40.809Z,28.99
2022-12-26T07:22:37.732Z,29.01
2022-12-26T07:23:37.690Z,28.99
2022-12-26T07:24:37.692Z,28.99
2022-12-26T07:25:37.669Z,29.00
2022-12-26T07:26:37.662Z,28.99
2022-12-26T07:27:37.648Z,28.97
2022-12-26T07:28:37.651Z,28.98
2022-12-26T07:29:37.635Z,28.98
2022-12-26T07:30:37.627Z,28.99
2022-12-26T07:31:37.683Z,28.98
2022-12-26T07:32:37.606Z,28.97
2022-12-26T07:33:37.596Z,28.98
2022-12-26T07:34:37.621Z,28.95
2022-12-26T07:35:37.586Z,28.96
2022-12-26T07:36:37.586Z,28.98
2022-12-26T07:37:37.559Z,29.00
2022-12-26T07:38:37.550Z,28.95
2022-12-26T07:39:37.562Z,28.95
2022-12-26T07:40:37.541Z,28.94
2022-12-26T07:41:37.532Z,28.93
2022-12-26T07:42:37.516Z,28.95
2022-12-26T07:43:37.502Z,28.94
2022-12-26T07:44:37.496Z,28.94
2022-12-26T07:45:41.999Z,28.92
2022-12-26T07:46:37.595Z,28.95
2022-12-26T07:47:37.553Z,28.94
2022-12-26T07:48:37.470Z,28.95
2022-12-26T07:49:37.458Z,28.93
2022-12-26T07:50:37.469Z,28.92
2022-12-26T07:51:37.456Z,28.91
2022-12-26T07:52:37.426Z,28.91
2022-12-26T07:53:37.423Z,28.92
2022-12-26T07:54:37.409Z,28.89
2022-12-26T07:55:37.406Z,28.93
2022-12-26T07:56:37.413Z,28.89
2022-12-26T07:57:52.772Z,28.91
2022-12-26T07:58:37.370Z,28.91
2022-12-26T07:59:37.358Z,28.93
2022-12-26T08:00:37.352Z,28.91
2022-12-26T08:01:37.549Z,28.93
2022-12-26T08:02:37.558Z,28.90
2022-12-26T08:03:37.403Z,28.88
2022-12-26T08:04:37.325Z,28.87
2022-12-26T08:05:37.304Z,28.87
2022-12-26T08:06:37.320Z,28.87
2022-12-26T08:07:37.452Z,28.88
2022-12-26T08:08:37.286Z,28.88
2022-12-26T08:09:37.269Z,28.88
2022-12-26T08:10:37.292Z,28.87
2022-12-26T08:11:37.281Z,28.87
2022-12-26T08:12:37.237Z,28.85
2022-12-26T08:13:37.239Z,28.85
2022-12-26T08:14:37.231Z,28.84
2022-12-26T08:15:37.216Z,28.86
2022-12-26T08:21:37.158Z,28.84
2022-12-26T08:23:37.151Z,28.85
2022-12-26T08:24:37.137Z,28.84
2022-12-26T08:25:37.132Z,28.83
